createdAt,value
2023-05-24T00:01:52.823Z,99.90
2023-05-24T00:04:22.890Z,99.90
2023-05-24T00:06:51.845Z,99.90
2023-05-24T00:09:21.050Z,99.90
2023-05-24T00:11:49.481Z,99.90
2023-05-24T00:14:18.024Z,99.90
2023-05-24T00:16:47.084Z,99.90
2023-05-24T00:19:18.681Z,99.90
2023-05-24T00:21:48.881Z,99.90
2023-05-24T00:24:18.201Z,99.90
2023-05-24T00:26:46.717Z,99.90
2023-05-24T00:29:15.381Z,99.90
2023-05-24T00:31:44.124Z,99.90
2023-05-24T00:34:12.730Z,99.90
2023-05-24T00:36:41.436Z,99.90
2023-05-24T00:39:11.749Z,99.90
2023-05-24T00:41:40.187Z,99.90
2023-05-24T00:44:11.084Z,99.90
2023-05-24T00:46:39.750Z,99.90
2023-05-24T00:49:08.438Z,99.90
2023-05-24T00:51:38.591Z,99.90
2023-05-24T00:54:08.051Z,99.90
2023-05-24T00:56:37.799Z,99.90
2023-05-24T00:59:06.443Z,99.90
2023-05-24T01:01:35.453Z,99.90
2023-05-24T01:04:04.260Z,99.90
2023-05-24T01:07:10.996Z,99.90
2023-05-24T01:09:52.146Z,99.90
2023-05-24T01:12:32.136Z,99.90
2023-05-24T01:15:10.719Z,99.90
2023-05-24T01:17:48.528Z,99.90
2023-05-24T01:20:19.748Z,99.90
2023-05-24T01:23:08.967Z,99.90
2023-05-24T01:26:04.889Z,99.90
2023-05-24T01:28:35.610Z,99.90
2023-05-24T01:31:04.670Z,99.90
2023-05-24T01:33:33.914Z,99.90
2023-05-24T01:36:02.401Z,99.90
2023-05-24T01:38:30.789Z,99.90
2023-05-24T01:41:03.309Z,99.90
2023-05-24T01:43:39.635Z,99.90
2023-05-24T01:46:15.100Z,99.90
2023-05-24T01:48:53.157Z,99.90
2023-05-24T01:51:24.994Z,99.90
2023-05-24T01:53:54.337Z,99.90
2023-05-24T01:56:23.805Z,99.90
2023-05-24T01:59:00.529Z,99.90
2023-05-24T02:01:29.892Z,99.90
2023-05-24T02:03:58.783Z,99.90
2023-05-24T02:06:27.216Z,99.90
2023-05-24T02:08:55.609Z,99.90
2023-05-24T02:11:24.009Z,99.90
2023-05-24T02:13:54.101Z,99.90
2023-05-24T02:16:27.156Z,99.90
2023-05-24T02:18:55.575Z,99.90
2023-05-24T02:21:24.531Z,99.90
2023-05-24T02:23:52.978Z,99.90
2023-05-24T02:26:21.399Z,99.90
2023-05-24T02:28:49.920Z,99.90
2023-05-24T02:31:18.518Z,99.90
2023-05-24T02:33:48.296Z,99.90
2023-05-24T02:36:16.871Z,99.90
2023-05-24T02:38:45.233Z,99.90
2023-05-24T02:41:17.954Z,99.90
2023-05-24T02:43:46.732Z,99.90
2023-05-24T02:46:16.372Z,99.90
2023-05-24T02:48:44.857Z,99.90
2023-05-24T02:51:14.706Z,99.90
2023-05-24T02:53:43.762Z,99.90
2023-05-24T02:56:13.962Z,99.90
2023-05-24T02:58:42.949Z,99.90
2023-05-24T03:01:12.429Z,99.90
2023-05-24T03:03:42.213Z,99.90
2023-05-24T03:06:14.132Z,99.90
2023-05-24T03:08:44.572Z,99.90
2023-05-24T03:11:15.558Z,99.90
2023-05-24T03:13:44.504Z,99.90
2023-05-24T03:16:13.381Z,99.90
2023-05-24T03:18:42.007Z,99.90
2023-05-24T03:21:10.712Z,99.90
2023-05-24T03:23:39.118Z,99.90
2023-05-24T03:26:09.847Z,99.90
2023-05-24T03:28:38.445Z,99.90
2023-05-24T03:31:07.012Z,99.90
2023-05-24T03:33:35.986Z,99.90
2023-05-24T03:36:04.530Z,99.90
2023-05-24T03:38:34.015Z,99.90
2023-05-24T03:41:02.490Z,99.90
2023-05-24T03:43:32.250Z,99.90
2023-05-24T03:46:04.219Z,99.90
2023-05-24T03:48:32.655Z,99.90
2023-05-24T03:51:01.091Z,99.90
2023-05-24T03:53:29.618Z,99.90
2023-05-24T03:55:58.045Z,99.90
2023-05-24T03:58:26.614Z,99.90
2023-05-24T04:00:56.570Z,99.90
2023-05-24T04:03:26.397Z,99.90
2023-05-24T04:05:56.706Z,99.90
2023-05-24T04:08:25.285Z,99.90
2023-05-24T04:10:53.764Z,99.90
2023-05-24T04:13:22.341Z,99.90
2023-05-24T04:15:50.793Z,99.90
2023-05-24T04:18:21.780Z,99.90
2023-05-24T04:20:51.083Z,99.90
2023-05-24T04:23:21.949Z,99.90
2023-05-24T04:25:51.125Z,99.90
2023-05-24T04:28:22.300Z,99.90
2023-05-24T04:30:53.893Z,99.90
2023-05-24T04:33:23.779Z,99.90
2023-05-24T04:35:52.732Z,99.90
2023-05-24T04:38:22.128Z,99.90
2023-05-24T04:40:50.723Z,99.90
2023-05-24T04:43:19.115Z,99.90
2023-05-24T04:45:47.596Z,99.90
2023-05-24T04:48:16.064Z,99.90
2023-05-24T04:50:45.899Z,99.90
2023-05-24T04:53:14.642Z,99.90
2023-05-24T04:55:43.979Z,99.90
2023-05-24T04:58:12.586Z,99.90
2023-05-24T05:00:41.249Z,99.90
2023-05-24T05:03:10.812Z,99.90
2023-05-24T05:05:39.454Z,99.90
2023-05-24T05:08:09.782Z,99.90
2023-05-24T05:10:38.258Z,99.90
2023-05-24T05:13:06.716Z,99.90
2023-05-24T05:15:35.325Z,99.90
2023-05-24T05:18:03.806Z,99.90
2023-05-24T05:20:32.245Z,99.90
2023-05-24T05:23:00.832Z,99.90
2023-05-24T05:25:31.151Z,99.90
2023-05-24T05:27:59.593Z,99.90
2023-05-24T05:30:28.096Z,99.90
2023-05-24T05:32:56.770Z,99.90
2023-05-24T05:35:25.267Z,99.90
2023-05-24T05:37:53.764Z,99.90
2023-05-24T05:40:23.027Z,98.70
2023-05-24T05:42:52.687Z,97.60
2023-05-24T05:45:21.386Z,95.60
2023-05-24T05:47:49.949Z,91.70
2023-05-24T05:50:18.475Z,85.30
2023-05-24T05:52:46.907Z,79.40
2023-05-24T05:55:15.300Z,74.30
2023-05-24T05:57:43.827Z,70.70
2023-05-24T06:00:14.441Z,68.80
2023-05-24T06:02:42.972Z,68.30
2023-05-24T06:05:12.230Z,67.00
2023-05-24T06:07:41.348Z,66.50
2023-05-24T06:10:09.985Z,66.10
2023-05-24T06:12:38.852Z,64.60
2023-05-24T06:15:08.599Z,63.80
2023-05-24T06:17:38.567Z,62.20
2023-05-24T06:20:09.828Z,60.00
2023-05-24T06:22:39.891Z,58.80
2023-05-24T06:25:08.832Z,57.70
2023-05-24T06:27:37.267Z,56.40
2023-05-24T06:30:07.210Z,55.80
2023-05-24T06:32:35.661Z,55.60
2023-05-24T06:35:05.776Z,54.90
2023-05-24T06:37:34.185Z,54.70
2023-05-24T06:40:04.847Z,55.10
2023-05-24T06:42:33.396Z,55.20
2023-05-24T06:45:01.761Z,55.10
2023-05-24T06:47:30.516Z,55.30
2023-05-24T06:49:59.222Z,55.40
2023-05-24T06:52:29.035Z,54.80
2023-05-24T06:54:57.518Z,54.70
2023-05-24T06:57:27.141Z,54.00
2023-05-24T06:59:55.554Z,52.60
2023-05-24T07:02:27.565Z,51.60
2023-05-24T07:04:57.308Z,51.00
2023-05-24T07:07:25.818Z,50.80
2023-05-24T07:09:55.529Z,50.10
2023-05-24T07:12:24.581Z,49.30
2023-05-24T07:14:53.432Z,48.80
2023-05-24T07:17:21.923Z,48.60
2023-05-24T07:19:50.521Z,48.70
2023-05-24T07:22:19.027Z,49.20
2023-05-24T07:24:47.433Z,50.40
2023-05-24T07:27:17.224Z,51.20
2023-05-24T07:29:48.231Z,51.60
2023-05-24T07:32:17.147Z,51.50
2023-05-24T07:34:45.570Z,51.10
2023-05-24T07:37:13.964Z,50.80
2023-05-24T07:39:42.456Z,50.10
2023-05-24T07:42:10.859Z,49.20
2023-05-24T07:44:40.736Z,48.40
2023-05-24T07:47:09.216Z,47.70
2023-05-24T07:49:37.592Z,48.30
2023-05-24T07:52:06.532Z,47.50
2023-05-24T07:54:34.906Z,47.00
2023-05-24T07:57:03.364Z,46.70
2023-05-24T07:59:31.700Z,46.40
2023-05-24T08:02:21.418Z,45.80
2023-05-24T08:04:49.957Z,44.80
2023-05-24T08:07:18.558Z,44.00
2023-05-24T08:09:47.537Z,43.50
2023-05-24T08:12:17.171Z,43.20
2023-05-24T08:14:45.795Z,43.20
2023-05-24T08:17:15.530Z,43.20
2023-05-24T08:19:44.026Z,43.00
2023-05-24T08:22:12.841Z,42.80
2023-05-24T08:24:41.551Z,42.30
2023-05-24T08:27:09.906Z,42.00
2023-05-24T08:29:38.923Z,41.40
2023-05-24T08:32:09.762Z,41.00
2023-05-24T08:34:39.808Z,41.50
2023-05-24T08:37:09.496Z,41.70
2023-05-24T08:39:37.851Z,41.30
2023-05-24T08:42:10.171Z,41.50
2023-05-24T08:44:43.362Z,41.20
2023-05-24T08:47:12.210Z,41.20
2023-05-24T08:49:43.030Z,41.40
2023-05-24T08:52:13.464Z,41.20
2023-05-24T08:54:42.510Z,40.80
2023-05-24T08:57:12.406Z,40.40
2023-05-24T08:59:42.839Z,39.90
2023-05-24T09:02:15.040Z,39.00
2023-05-24T09:04:47.155Z,38.50
2023-05-24T09:07:18.737Z,39.00
2023-05-24T09:09:51.210Z,39.50
2023-05-24T09:12:35.678Z,39.60
2023-05-24T09:15:06.907Z,39.70
2023-05-24T09:17:36.930Z,39.10
2023-05-24T09:20:09.226Z,38.40
2023-05-24T09:22:40.998Z,38.80
2023-05-24T09:25:11.552Z,39.20
2023-05-24T09:27:40.402Z,39.00
2023-05-24T09:30:12.884Z,39.30
2023-05-24T09:32:43.006Z,39.30
2023-05-24T09:35:12.811Z,39.10
2023-05-24T09:37:41.406Z,38.10
2023-05-24T09:40:19.961Z,38.30
2023-05-24T09:42:51.556Z,38.50
2023-05-24T09:45:20.285Z,38.60
2023-05-24T09:47:49.906Z,38.10
2023-05-24T09:50:22.309Z,37.80
2023-05-24T09:52:54.263Z,37.30
2023-05-24T09:55:23.126Z,37.60
2023-05-24T09:58:04.578Z,37.60
2023-05-24T10:00:36.812Z,37.40
2023-05-24T10:03:07.336Z,37.50
2023-05-24T10:05:37.978Z,37.60
2023-05-24T10:08:06.804Z,37.10
2023-05-24T10:10:35.658Z,37.40
2023-05-24T10:13:04.477Z,38.20
2023-05-24T10:15:32.928Z,38.60
2023-05-24T10:18:02.088Z,38.70
2023-05-24T10:20:30.833Z,38.90
2023-05-24T10:23:05.087Z,38.50
2023-05-24T10:25:36.458Z,38.10
2023-05-24T10:28:11.169Z,38.00
2023-05-24T10:30:49.001Z,37.80
2023-05-24T10:33:19.477Z,37.40
2023-05-24T10:35:47.925Z,36.90
2023-05-24T10:38:17.998Z,36.60
2023-05-24T10:40:46.447Z,37.00
2023-05-24T10:43:15.450Z,37.00
2023-05-24T10:45:44.063Z,36.30
2023-05-24T10:48:36.349Z,36.20
2023-05-24T10:51:36.805Z,36.00
2023-05-24T10:54:17.980Z,36.30
2023-05-24T10:56:49.455Z,36.60
2023-05-24T10:59:26.113Z,36.80
2023-05-24T11:01:59.303Z,36.70
2023-05-24T11:04:31.996Z,36.50
2023-05-24T11:07:04.649Z,36.50
2023-05-24T11:09:35.112Z,36.30
2023-05-24T11:12:07.449Z,36.10
2023-05-24T11:14:40.229Z,35.80
2023-05-24T11:17:10.768Z,36.00
2023-05-24T11:19:47.185Z,35.70
2023-05-24T11:22:16.308Z,35.60
2023-05-24T11:24:46.830Z,35.40
2023-05-24T11:27:15.778Z,35.90
2023-05-24T11:29:45.166Z,35.90
2023-05-24T11:32:17.238Z,36.00
2023-05-24T11:34:47.784Z,35.90
2023-05-24T11:37:18.381Z,35.60
2023-05-24T11:39:53.416Z,35.50
2023-05-24T11:42:23.668Z,35.60
2023-05-24T11:44:55.136Z,35.20
2023-05-24T11:47:24.408Z,34.90
2023-05-24T11:49:53.089Z,34.60
2023-05-24T11:52:22.824Z,34.60
2023-05-24T11:54:52.928Z,35.60
2023-05-24T11:57:28.440Z,34.90
2023-05-24T11:59:58.540Z,34.80
2023-05-24T12:02:26.954Z,34.60
2023-05-24T12:04:55.511Z,34.80
2023-05-24T12:07:25.230Z,35.20
2023-05-24T12:09:54.922Z,35.20
2023-05-24T12:12:30.696Z,35.10
2023-05-24T12:15:02.949Z,34.50
2023-05-24T12:17:31.490Z,33.70
2023-05-24T12:19:59.884Z,33.20
2023-05-24T12:22:32.037Z,33.20
2023-05-24T12:25:01.730Z,33.60
2023-05-24T12:27:31.706Z,33.70
2023-05-24T12:30:10.020Z,33.60
2023-05-24T12:32:38.579Z,33.60
2023-05-24T12:35:07.795Z,33.30
2023-05-24T12:37:36.804Z,33.30
2023-05-24T12:40:17.524Z,33.00
2023-05-24T12:42:46.477Z,32.80
2023-05-24T12:45:16.048Z,32.60
2023-05-24T12:47:44.633Z,32.30
2023-05-24T12:50:13.067Z,31.90
2023-05-24T12:52:41.572Z,31.90
2023-05-24T12:55:11.647Z,32.10
2023-05-24T12:57:40.827Z,32.00
2023-05-24T13:00:10.764Z,32.20
2023-05-24T13:02:40.650Z,32.30
2023-05-24T13:05:10.714Z,31.40
2023-05-24T13:07:40.108Z,31.80
2023-05-24T13:10:09.505Z,33.10
2023-05-24T13:12:39.369Z,33.70
2023-05-24T13:15:09.357Z,34.20
2023-05-24T13:17:38.481Z,34.50
2023-05-24T13:20:11.490Z,34.80
2023-05-24T13:22:40.885Z,34.20
2023-05-24T13:25:10.623Z,34.00
2023-05-24T13:27:41.179Z,33.50
2023-05-24T13:30:10.846Z,33.40
2023-05-24T13:32:41.197Z,33.70
2023-05-24T13:35:11.586Z,33.50
2023-05-24T13:37:41.257Z,33.10
2023-05-24T13:40:11.337Z,32.80
2023-05-24T13:42:41.190Z,32.90
2023-05-24T13:45:10.593Z,33.20
2023-05-24T13:47:41.046Z,33.60
2023-05-24T13:50:11.141Z,34.30
2023-05-24T13:52:39.658Z,34.90
2023-05-24T13:55:09.018Z,35.50
2023-05-24T13:57:49.717Z,36.10
2023-05-24T14:00:21.995Z,36.60
2023-05-24T14:02:50.970Z,36.80
2023-05-24T14:07:51.683Z,37.70
2023-05-24T14:10:21.188Z,38.00
2023-05-24T14:13:03.513Z,38.60
2023-05-24T14:15:40.015Z,39.00
2023-05-24T14:18:11.008Z,39.20
2023-05-24T14:20:40.876Z,39.70
2023-05-24T14:23:10.061Z,40.10
2023-05-24T14:25:38.873Z,40.10
2023-05-24T14:28:08.619Z,40.40
2023-05-24T14:30:39.100Z,40.50
2023-05-24T14:33:11.695Z,40.50
2023-05-24T14:35:40.600Z,40.60
2023-05-24T14:38:10.367Z,40.90
2023-05-24T14:40:41.042Z,41.30
2023-05-24T14:43:11.072Z,41.70
2023-05-24T14:45:41.774Z,42.00
2023-05-24T14:48:13.083Z,42.60
2023-05-24T14:50:43.352Z,42.80
2023-05-24T14:53:13.165Z,42.80
2023-05-24T14:55:43.967Z,42.80
2023-05-24T14:58:13.615Z,42.80
2023-05-24T15:00:44.141Z,42.80
2023-05-24T15:03:14.999Z,42.90
2023-05-24T15:05:43.699Z,42.80
2023-05-24T15:08:12.225Z,43.10
2023-05-24T15:10:41.259Z,43.10
2023-05-24T15:13:09.772Z,43.30
2023-05-24T15:15:38.156Z,43.30
2023-05-24T15:18:08.177Z,43.40
2023-05-24T15:20:38.141Z,43.50
2023-05-24T15:23:10.429Z,44.20
2023-05-24T15:25:38.984Z,43.70
2023-05-24T15:28:07.552Z,43.90
2023-05-24T15:30:35.875Z,44.20
2023-05-24T15:33:04.458Z,44.40
2023-05-24T15:35:32.908Z,44.50
2023-05-24T15:38:02.717Z,44.50
2023-05-24T15:40:31.154Z,44.70
2023-05-24T15:42:59.769Z,45.00
2023-05-24T15:45:28.236Z,45.30
2023-05-24T15:47:56.712Z,45.60
2023-05-24T15:50:42.580Z,45.90
2023-05-24T15:53:15.206Z,46.10
2023-05-24T15:55:44.031Z,46.20
2023-05-24T15:58:13.891Z,46.30
2023-05-24T16:00:43.120Z,46.40
2023-05-24T16:03:15.668Z,46.30
2023-05-24T16:05:44.670Z,46.50
2023-05-24T16:08:16.206Z,46.40
2023-05-24T16:10:44.958Z,46.10
2023-05-24T16:13:13.650Z,46.60
2023-05-24T16:15:42.602Z,46.00
2023-05-24T16:18:11.240Z,46.10
2023-05-24T16:20:39.970Z,46.20
2023-05-24T16:23:08.485Z,46.10
2023-05-24T16:25:38.766Z,46.20
2023-05-24T16:28:07.209Z,46.30
2023-05-24T16:30:36.960Z,46.40
2023-05-24T16:33:05.771Z,46.50
2023-05-24T16:35:34.499Z,46.70
2023-05-24T16:38:03.105Z,46.70
2023-05-24T16:40:31.488Z,46.80
2023-05-24T16:43:01.125Z,47.40
2023-05-24T16:45:29.881Z,46.80
2023-05-24T16:47:58.394Z,46.90
2023-05-24T16:50:27.054Z,47.00
2023-05-24T16:52:55.676Z,47.00
2023-05-24T16:55:24.097Z,47.00
2023-05-24T16:57:52.481Z,47.20
2023-05-24T17:00:23.327Z,47.20
2023-05-24T17:02:51.949Z,47.30
2023-05-24T17:05:20.522Z,47.40
2023-05-24T17:07:49.004Z,47.60
2023-05-24T17:10:17.410Z,47.80
2023-05-24T17:12:47.521Z,47.90
2023-05-24T17:15:16.070Z,48.10
2023-05-24T17:17:46.069Z,48.20
2023-05-24T17:20:14.729Z,48.30
2023-05-24T17:22:43.269Z,48.40
2023-05-24T17:25:11.768Z,48.50
2023-05-24T17:27:40.241Z,48.70
2023-05-24T17:30:09.616Z,48.90
2023-05-24T17:32:38.120Z,49.00
2023-05-24T17:35:08.196Z,49.10
2023-05-24T17:37:36.627Z,49.30
2023-05-24T17:40:05.355Z,49.40
2023-05-24T17:42:33.812Z,49.60
2023-05-24T17:45:02.224Z,49.60
2023-05-24T17:47:30.799Z,49.80
2023-05-24T17:49:59.243Z,49.90
2023-05-24T17:52:29.816Z,49.90
2023-05-24T17:54:58.560Z,50.00
2023-05-24T17:57:27.908Z,50.20
2023-05-24T17:59:56.673Z,50.40
2023-05-24T18:02:28.021Z,50.50
2023-05-24T18:04:56.705Z,50.70
2023-05-24T18:07:25.782Z,50.90
2023-05-24T18:09:56.007Z,51.00
2023-05-24T18:12:28.726Z,51.30
2023-05-24T18:14:57.753Z,51.50
2023-05-24T18:17:27.385Z,51.70
2023-05-24T18:19:55.918Z,51.90
2023-05-24T18:22:24.411Z,52.30
2023-05-24T18:24:52.823Z,52.50
2023-05-24T18:27:22.645Z,52.70
2023-05-24T18:29:51.073Z,53.10
2023-05-24T18:32:20.422Z,53.20
2023-05-24T18:34:49.684Z,53.40
2023-05-24T18:37:19.958Z,53.50
2023-05-24T18:40:02.559Z,53.60
2023-05-24T18:42:32.451Z,53.80
2023-05-24T18:45:00.874Z,53.80
2023-05-24T18:47:31.145Z,54.00
2023-05-24T18:50:00.540Z,54.20
2023-05-24T18:52:29.019Z,54.40
2023-05-24T18:54:58.704Z,54.70
2023-05-24T18:57:27.179Z,54.90
2023-05-24T18:59:56.837Z,55.20
2023-05-24T19:02:25.320Z,55.20
2023-05-24T19:04:53.820Z,55.40
2023-05-24T19:07:22.265Z,55.50
2023-05-24T19:09:50.844Z,55.70
2023-05-24T19:12:19.305Z,55.80
2023-05-24T19:14:47.829Z,56.00
2023-05-24T19:17:17.523Z,56.10
2023-05-24T19:19:46.514Z,56.30
2023-05-24T19:22:14.992Z,56.40
2023-05-24T19:24:43.454Z,56.50
2023-05-24T19:27:11.883Z,56.60
2023-05-24T19:29:40.831Z,56.70
2023-05-24T19:32:10.638Z,56.90
2023-05-24T19:34:42.313Z,57.00
2023-05-24T19:37:11.237Z,57.20
2023-05-24T19:39:39.679Z,57.20
2023-05-24T19:42:08.100Z,57.40
2023-05-24T19:44:36.629Z,57.50
2023-05-24T19:47:05.200Z,57.60
2023-05-24T19:49:33.896Z,57.70
2023-05-24T19:52:03.713Z,57.80
2023-05-24T19:54:32.057Z,58.00
2023-05-24T19:57:01.779Z,58.10
2023-05-24T19:59:30.185Z,58.40
2023-05-24T20:01:58.674Z,58.50
2023-05-24T20:04:27.276Z,58.60
2023-05-24T20:06:55.893Z,58.70
2023-05-24T20:09:27.552Z,59.40
2023-05-24T20:12:11.577Z,59.00
2023-05-24T20:14:40.150Z,59.00
2023-05-24T20:17:09.426Z,59.20
2023-05-24T20:19:58.544Z,59.40
2023-05-24T20:22:27.259Z,59.40
2023-05-24T20:24:57.071Z,59.60
2023-05-24T20:27:25.461Z,59.70
2023-05-24T20:29:55.031Z,59.90
2023-05-24T20:32:23.595Z,60.10
2023-05-24T20:34:52.149Z,60.30
2023-05-24T20:37:26.817Z,60.50
2023-05-24T20:39:56.962Z,60.70
2023-05-24T20:42:25.486Z,61.00
2023-05-24T20:44:53.850Z,61.00
2023-05-24T20:47:22.337Z,61.30
2023-05-24T20:50:11.701Z,61.40
2023-05-24T20:52:40.167Z,61.60
2023-05-24T20:55:11.569Z,61.90
2023-05-24T20:57:40.574Z,62.10
2023-05-24T21:00:10.165Z,62.20
2023-05-24T21:02:40.064Z,62.40
2023-05-24T21:05:08.918Z,62.60
2023-05-24T21:07:37.432Z,62.70
2023-05-24T21:10:06.187Z,63.00
2023-05-24T21:12:43.323Z,63.20
2023-05-24T21:15:12.047Z,63.50
2023-05-24T21:17:40.713Z,63.80
2023-05-24T21:20:09.951Z,64.20
2023-05-24T21:22:38.799Z,64.40
2023-05-24T21:25:08.413Z,64.70
2023-05-24T21:27:38.166Z,64.70
2023-05-24T21:30:07.711Z,64.90
2023-05-24T21:32:36.673Z,65.10
2023-05-24T21:35:05.481Z,65.40
2023-05-24T21:37:33.911Z,65.60
2023-05-24T21:40:02.298Z,65.90
2023-05-24T21:42:30.803Z,66.30
2023-05-24T21:45:00.713Z,66.50
2023-05-24T21:47:29.188Z,66.90
2023-05-24T21:49:57.715Z,67.10
2023-05-24T21:52:26.106Z,67.50
2023-05-24T21:54:54.528Z,67.80
2023-05-24T21:57:26.245Z,68.00
2023-05-24T21:59:55.035Z,68.30
2023-05-24T22:02:24.772Z,68.80
2023-05-24T22:04:53.292Z,69.20
2023-05-24T22:07:21.696Z,69.60
2023-05-24T22:09:50.080Z,70.60
2023-05-24T22:12:18.423Z,71.50
2023-05-24T22:14:46.844Z,72.00
2023-05-24T22:17:15.290Z,72.50
2023-05-24T22:19:45.134Z,73.30
2023-05-24T22:22:13.678Z,73.90
2023-05-24T22:24:42.160Z,74.50
2023-05-24T22:27:13.629Z,74.80
2023-05-24T22:29:42.277Z,75.10
2023-05-24T22:32:11.070Z,75.60
2023-05-24T22:34:39.601Z,75.90
2023-05-24T22:37:09.360Z,76.20
2023-05-24T22:39:38.997Z,76.60
2023-05-24T22:42:07.425Z,77.10
2023-05-24T22:44:38.310Z,77.80
2023-05-24T22:47:08.182Z,78.20
2023-05-24T22:49:36.689Z,78.70
2023-05-24T22:52:06.986Z,79.00
2023-05-24T22:54:36.788Z,79.40
2023-05-24T22:57:05.732Z,79.80
2023-05-24T22:59:34.272Z,80.20
2023-05-24T23:02:02.565Z,80.80
2023-05-24T23:04:31.066Z,81.40
2023-05-24T23:06:59.546Z,81.70
2023-05-24T23:09:34.925Z,81.90
2023-05-24T23:12:08.473Z,82.10
2023-05-24T23:14:39.241Z,81.90
2023-05-24T23:17:10.349Z,82.30
2023-05-24T23:19:42.750Z,82.60
2023-05-24T23:22:12.013Z,82.70
2023-05-24T23:24:42.302Z,83.70
2023-05-24T23:27:12.792Z,84.30
2023-05-24T23:29:41.291Z,84.60
2023-05-24T23:32:10.672Z,85.20
2023-05-24T23:34:39.214Z,85.90
2023-05-24T23:37:08.445Z,86.60
2023-05-24T23:39:37.027Z,88.00
2023-05-24T23:42:06.922Z,88.80
2023-05-24T23:44:36.897Z,89.70
2023-05-24T23:47:05.561Z,90.60
2023-05-24T23:49:34.181Z,91.20
2023-05-24T23:52:02.680Z,91.80
2023-05-24T23:54:31.721Z,92.30
2023-05-24T23:57:00.083Z,92.50
2023-05-24T23:59:28.574Z,92.70
